createdAt,value
2022-12-29T00:01:07.785Z,0.00
2022-12-29T00:03:35.493Z,0.30
2022-12-29T00:06:03.858Z,0.13
2022-12-29T00:08:41.049Z,0.10
2022-12-29T00:11:20.101Z,0.93
2022-12-29T00:14:06.630Z,0.20
2022-12-29T00:16:36.063Z,0.20
2022-12-29T00:19:05.993Z,0.10
2022-12-29T00:21:53.365Z,0.13
2022-12-29T00:24:22.995Z,0.10
2022-12-29T00:27:33.363Z,0.20
2022-12-29T00:30:19.794Z,0.10
2022-12-29T00:33:06.079Z,0.03
2022-12-29T00:35:40.785Z,0.10
2022-12-29T00:38:28.405Z,0.00
2022-12-29T00:41:14.429Z,0.20
2022-12-29T00:44:00.527Z,0.10
2022-12-29T00:46:28.712Z,0.20
2022-12-29T00:49:15.155Z,0.13
2022-12-29T00:51:43.133Z,0.13
2022-12-29T00:54:10.699Z,0.10
2022-12-29T00:56:38.298Z,0.17
2022-12-29T00:59:08.029Z,0.10
2022-12-29T01:01:36.551Z,0.10
2022-12-29T01:04:05.503Z,0.10
2022-12-29T01:06:34.465Z,0.10
2022-12-29T01:09:20.456Z,0.10
2022-12-29T01:11:49.303Z,0.15
2022-12-29T01:14:18.034Z,0.15
2022-12-29T01:16:46.349Z,0.10
2022-12-29T01:19:15.266Z,0.00
2022-12-29T01:21:43.277Z,0.00
2022-12-29T01:24:10.887Z,0.05
2022-12-29T01:26:38.508Z,0.03
2022-12-29T01:29:06.045Z,0.20
2022-12-29T01:31:33.746Z,0.15
2022-12-29T01:34:01.783Z,0.10
2022-12-29T01:36:29.397Z,0.10
2022-12-29T01:38:57.265Z,0.20
2022-12-29T01:41:24.965Z,0.10
2022-12-29T01:43:58.763Z,0.10
2022-12-29T01:46:41.093Z,0.10
2022-12-29T01:49:09.055Z,0.20
2022-12-29T01:52:08.452Z,0.28
2022-12-29T01:54:44.910Z,0.00
2022-12-29T01:57:17.932Z,0.13
2022-12-29T01:59:57.655Z,0.40
2022-12-29T02:02:25.884Z,0.00
2022-12-29T02:05:00.124Z,0.10
2022-12-29T02:07:32.627Z,0.20
2022-12-29T02:10:02.519Z,0.10
2022-12-29T02:12:30.939Z,0.20
2022-12-29T02:15:03.128Z,0.10
2022-12-29T02:17:36.713Z,0.10
2022-12-29T02:20:16.386Z,0.20
2022-12-29T02:22:56.184Z,0.13
2022-12-29T02:25:42.027Z,0.10
2022-12-29T02:28:33.903Z,0.22
2022-12-29T02:31:18.270Z,0.20
2022-12-29T02:34:16.118Z,0.05
2022-12-29T02:36:54.807Z,0.20
2022-12-29T02:39:51.374Z,0.10
2022-12-29T02:42:42.666Z,0.30
2022-12-29T02:45:37.830Z,0.43
2022-12-29T02:48:10.505Z,0.30
2022-12-29T02:50:40.850Z,0.10
2022-12-29T02:53:14.366Z,0.10
2022-12-29T02:55:52.582Z,0.20
2022-12-29T02:58:23.072Z,0.20
2022-12-29T03:01:30.503Z,0.10
2022-12-29T03:04:12.045Z,0.10
2022-12-29T03:07:03.818Z,0.10
2022-12-29T03:09:55.532Z,0.10
2022-12-29T03:12:56.951Z,0.10
2022-12-29T03:15:53.698Z,0.10
2022-12-29T03:18:27.532Z,0.13
2022-12-29T03:21:03.746Z,0.10
2022-12-29T03:23:33.468Z,0.20
2022-12-29T03:26:06.677Z,0.10
2022-12-29T03:28:39.729Z,0.20
2022-12-29T03:31:10.722Z,0.10
2022-12-29T03:33:43.004Z,0.20
2022-12-29T03:36:17.061Z,0.10
2022-12-29T03:38:50.747Z,0.10
2022-12-29T03:41:25.007Z,0.20
2022-12-29T03:43:52.863Z,0.10
2022-12-29T03:46:20.443Z,0.20
2022-12-29T03:48:48.157Z,0.20
2022-12-29T03:51:15.747Z,0.20
2022-12-29T03:53:43.707Z,0.10
2022-12-29T03:56:11.447Z,0.10
2022-12-29T03:58:39.039Z,0.10
2022-12-29T04:01:17.411Z,0.10
2022-12-29T04:03:46.171Z,0.10
2022-12-29T04:06:13.798Z,0.20
2022-12-29T04:08:50.129Z,0.30
2022-12-29T04:11:17.752Z,0.10
2022-12-29T04:13:46.557Z,0.30
2022-12-29T04:16:18.085Z,0.20
2022-12-29T04:18:46.300Z,0.15
2022-12-29T04:21:13.913Z,0.20
2022-12-29T04:23:43.772Z,0.10
2022-12-29T04:26:11.911Z,0.10
2022-12-29T04:28:50.313Z,0.00
2022-12-29T04:31:44.524Z,0.05
2022-12-29T04:34:12.462Z,0.03
2022-12-29T04:36:40.784Z,0.13
2022-12-29T04:39:08.905Z,0.00
2022-12-29T04:41:38.074Z,0.20
2022-12-29T04:44:07.922Z,0.10
2022-12-29T04:47:10.779Z,0.20
2022-12-29T04:49:50.666Z,0.10
2022-12-29T04:52:38.470Z,0.10
2022-12-29T04:55:07.612Z,0.20
2022-12-29T04:57:35.761Z,0.10
2022-12-29T05:00:05.023Z,0.30
2022-12-29T05:02:32.933Z,0.20
2022-12-29T05:05:01.703Z,0.20
2022-12-29T05:07:29.994Z,0.20
2022-12-29T05:09:57.661Z,0.30
2022-12-29T05:12:25.668Z,0.20
2022-12-29T05:14:58.860Z,0.10
2022-12-29T05:17:27.355Z,0.10
2022-12-29T05:19:55.199Z,0.15
2022-12-29T05:22:24.383Z,0.10
2022-12-29T05:24:52.148Z,0.20
2022-12-29T05:27:19.816Z,0.10
2022-12-29T05:30:01.703Z,0.30
2022-12-29T05:32:29.593Z,0.10
2022-12-29T05:34:59.508Z,0.13
2022-12-29T05:37:27.162Z,0.30
2022-12-29T05:39:54.747Z,0.17
2022-12-29T05:42:22.359Z,0.20
2022-12-29T05:44:59.409Z,0.20
2022-12-29T05:47:53.415Z,0.05
2022-12-29T05:50:56.167Z,0.10
2022-12-29T05:53:33.230Z,0.20
2022-12-29T05:56:01.645Z,0.10
2022-12-29T05:58:29.493Z,0.10
2022-12-29T06:00:57.165Z,0.10
2022-12-29T06:03:25.689Z,0.00
2022-12-29T06:05:53.568Z,0.20
2022-12-29T06:08:21.229Z,0.10
2022-12-29T06:10:50.542Z,0.20
2022-12-29T06:13:18.275Z,0.10
2022-12-29T06:15:52.761Z,0.20
2022-12-29T06:18:21.231Z,0.23
2022-12-29T06:20:49.250Z,0.20
2022-12-29T06:23:19.721Z,0.13
2022-12-29T06:25:50.802Z,0.10
2022-12-29T06:28:18.420Z,0.05
2022-12-29T06:30:47.214Z,0.00
2022-12-29T06:33:14.821Z,0.00
2022-12-29T06:35:46.996Z,0.00
2022-12-29T06:38:16.240Z,0.00
2022-12-29T06:40:46.120Z,0.10
2022-12-29T06:43:22.917Z,0.00
2022-12-29T06:46:09.908Z,0.10
2022-12-29T06:48:37.574Z,0.30
2022-12-29T06:51:05.306Z,0.35
2022-12-29T06:53:32.984Z,0.10
2022-12-29T06:56:01.102Z,0.20
2022-12-29T06:58:28.704Z,0.13
2022-12-29T07:00:56.337Z,0.00
2022-12-29T07:03:24.023Z,0.10
2022-12-29T07:05:51.587Z,0.28
2022-12-29T07:08:19.517Z,0.10
2022-12-29T07:10:47.705Z,0.20
2022-12-29T07:13:15.289Z,0.30
2022-12-29T07:15:43.182Z,0.00
2022-12-29T07:18:10.955Z,0.00
2022-12-29T07:20:38.480Z,0.10
2022-12-29T07:23:06.075Z,0.20
2022-12-29T07:25:33.710Z,0.10
2022-12-29T07:28:01.306Z,0.10
2022-12-29T07:30:28.918Z,0.30
2022-12-29T07:32:56.578Z,0.10
2022-12-29T07:35:24.225Z,0.10
2022-12-29T07:37:51.830Z,0.10
2022-12-29T07:40:19.385Z,0.00
2022-12-29T07:42:46.955Z,0.10
2022-12-29T07:45:16.913Z,0.00
2022-12-29T07:48:06.944Z,0.00
2022-12-29T07:50:35.599Z,0.10
2022-12-29T07:53:03.902Z,0.00
2022-12-29T07:55:31.531Z,0.00
2022-12-29T07:57:59.121Z,0.10
2022-12-29T08:00:27.081Z,0.03
2022-12-29T08:02:54.843Z,0.00
2022-12-29T08:05:23.480Z,0.10
2022-12-29T08:07:51.661Z,0.10
2022-12-29T08:10:20.111Z,0.00
2022-12-29T08:12:48.090Z,0.00
2022-12-29T08:15:15.789Z,0.20
2022-12-29T08:17:43.452Z,0.00
2022-12-29T08:20:11.339Z,0.10
2022-12-29T08:22:38.963Z,0.10
2022-12-29T08:25:06.780Z,0.00
2022-12-29T08:27:34.371Z,0.00
2022-12-29T08:30:02.005Z,0.10
2022-12-29T08:32:29.695Z,0.10
2022-12-29T08:34:57.383Z,0.20
2022-12-29T08:37:30.716Z,0.22
2022-12-29T08:39:59.812Z,0.10
2022-12-29T08:42:32.100Z,0.25
2022-12-29T08:45:00.379Z,0.25
2022-12-29T08:47:28.572Z,0.20
2022-12-29T08:49:56.180Z,0.10
2022-12-29T08:52:24.171Z,0.20
2022-12-29T08:54:51.842Z,0.20
2022-12-29T08:57:19.497Z,0.22
2022-12-29T09:00:05.596Z,0.30
2022-12-29T09:02:33.480Z,0.20
2022-12-29T09:05:02.114Z,0.20
2022-12-29T09:07:30.800Z,0.25
2022-12-29T09:09:58.351Z,0.30
2022-12-29T09:12:26.123Z,0.40
2022-12-29T09:14:55.255Z,0.20
2022-12-29T09:17:41.508Z,0.40
2022-12-29T09:20:10.086Z,0.20
2022-12-29T09:22:38.090Z,0.20
2022-12-29T09:25:05.996Z,0.30
2022-12-29T09:27:33.668Z,0.20
2022-12-29T09:30:01.274Z,0.30
2022-12-29T09:32:33.611Z,0.13
2022-12-29T09:35:02.448Z,0.28
2022-12-29T09:37:30.026Z,0.20
2022-12-29T09:39:57.617Z,0.10
2022-12-29T09:42:45.347Z,0.10
2022-12-29T09:45:15.979Z,0.20
2022-12-29T09:47:46.199Z,0.20
2022-12-29T09:50:16.832Z,0.10
2022-12-29T09:53:00.404Z,0.22
2022-12-29T09:55:38.135Z,0.40
2022-12-29T09:58:21.977Z,0.40
2022-12-29T10:00:55.841Z,0.55
2022-12-29T10:03:27.888Z,0.40
2022-12-29T10:06:22.954Z,0.50
2022-12-29T10:09:18.335Z,0.40
2022-12-29T10:12:24.133Z,0.68
2022-12-29T10:15:29.469Z,0.43
2022-12-29T10:18:11.976Z,0.80
2022-12-29T10:20:53.792Z,0.70
2022-12-29T10:23:33.381Z,0.80
2022-12-29T10:26:04.009Z,0.95
2022-12-29T10:28:50.500Z,0.52
2022-12-29T10:31:22.858Z,0.80
2022-12-29T10:33:57.446Z,0.77
2022-12-29T10:36:27.996Z,0.70
2022-12-29T10:39:01.665Z,0.55
2022-12-29T10:41:37.757Z,0.70
2022-12-29T10:44:05.478Z,0.97
2022-12-29T10:46:37.753Z,0.60
2022-12-29T10:49:12.939Z,0.80
2022-12-29T10:51:45.658Z,0.70
2022-12-29T10:54:34.681Z,1.30
2022-12-29T10:57:12.590Z,1.03
2022-12-29T10:59:40.337Z,1.10
2022-12-29T11:02:07.983Z,0.77
2022-12-29T11:04:53.957Z,0.73
2022-12-29T11:07:27.155Z,1.05
2022-12-29T11:09:55.520Z,0.40
2022-12-29T11:12:27.797Z,0.47
2022-12-29T11:15:08.634Z,0.40
2022-12-29T11:17:48.481Z,0.50
2022-12-29T11:20:36.471Z,0.57
2022-12-29T11:23:07.271Z,0.40
2022-12-29T11:25:34.836Z,0.45
2022-12-29T11:28:15.510Z,0.43
2022-12-29T11:30:44.130Z,0.70
2022-12-29T11:33:11.743Z,0.60
2022-12-29T11:35:44.253Z,0.40
2022-12-29T11:38:21.911Z,0.40
2022-12-29T11:40:49.932Z,0.45
2022-12-29T11:43:23.711Z,0.30
2022-12-29T11:45:53.997Z,0.30
2022-12-29T11:48:22.417Z,0.43
2022-12-29T11:50:56.782Z,0.40
2022-12-29T11:53:27.921Z,0.47
2022-12-29T11:56:13.499Z,0.50
2022-12-29T11:58:41.248Z,0.40
2022-12-29T12:01:25.278Z,0.40
2022-12-29T12:04:06.557Z,0.60
2022-12-29T12:06:38.117Z,0.50
2022-12-29T12:09:15.660Z,0.60
2022-12-29T12:11:46.568Z,0.60
2022-12-29T12:14:22.788Z,0.30
2022-12-29T12:17:11.641Z,0.70
2022-12-29T12:19:52.765Z,0.40
2022-12-29T12:22:24.160Z,1.27
2022-12-29T12:24:57.395Z,1.45
2022-12-29T12:27:30.361Z,2.67
2022-12-29T12:30:03.994Z,0.80
2022-12-29T12:32:53.668Z,0.75
2022-12-29T12:35:44.966Z,0.98
2022-12-29T12:38:20.844Z,0.90
2022-12-29T12:41:18.114Z,0.53
2022-12-29T12:43:56.745Z,0.47
2022-12-29T12:46:51.647Z,0.47
2022-12-29T12:49:58.425Z,0.30
2022-12-29T12:53:03.600Z,0.45
2022-12-29T12:55:54.911Z,0.33
2022-12-29T12:58:48.653Z,0.20
2022-12-29T13:01:31.721Z,0.20
2022-12-29T13:04:28.482Z,0.20
2022-12-29T13:07:23.271Z,0.30
2022-12-29T13:10:28.249Z,0.30
2022-12-29T13:13:13.919Z,0.40
2022-12-29T13:16:14.852Z,0.57
2022-12-29T13:19:32.500Z,0.32
2022-12-29T13:22:07.338Z,0.25
2022-12-29T13:24:47.009Z,0.90
2022-12-29T13:27:21.926Z,0.52
2022-12-29T13:30:20.474Z,7.07
2022-12-29T13:33:03.131Z,0.70
2022-12-29T13:35:42.896Z,0.80
2022-12-29T13:38:25.301Z,0.60
2022-12-29T13:41:04.698Z,0.50
2022-12-29T13:43:35.616Z,0.60
2022-12-29T13:46:10.941Z,0.70
2022-12-29T13:48:47.509Z,0.45
2022-12-29T13:51:19.212Z,0.20
2022-12-29T13:54:21.368Z,0.17
2022-12-29T13:57:27.897Z,0.20
2022-12-29T13:59:55.555Z,0.10
2022-12-29T14:02:29.499Z,0.05
2022-12-29T14:05:03.111Z,0.10
2022-12-29T14:07:37.972Z,0.00
2022-12-29T14:10:06.679Z,0.20
2022-12-29T14:12:41.837Z,0.28
2022-12-29T14:15:12.213Z,0.20
2022-12-29T14:18:00.871Z,0.40
2022-12-29T14:20:28.667Z,0.10
2022-12-29T14:23:20.663Z,0.13
2022-12-29T14:26:01.190Z,0.10
2022-12-29T14:28:31.163Z,0.20
2022-12-29T14:31:01.222Z,0.10
2022-12-29T14:33:32.007Z,0.15
2022-12-29T14:36:26.429Z,0.10
2022-12-29T14:38:54.074Z,0.13
2022-12-29T14:41:30.165Z,0.20
2022-12-29T14:44:02.669Z,0.30
2022-12-29T14:46:45.619Z,0.40
2022-12-29T14:49:25.969Z,0.63
2022-12-29T14:52:05.287Z,0.32
2022-12-29T14:54:32.843Z,0.20
2022-12-29T14:57:03.433Z,0.23
2022-12-29T14:59:35.923Z,0.10
2022-12-29T15:02:13.532Z,0.10
2022-12-29T15:04:41.535Z,0.10
2022-12-29T15:07:11.064Z,0.00
2022-12-29T15:09:52.440Z,0.10
2022-12-29T15:12:44.636Z,0.00
2022-12-29T15:15:25.014Z,0.20
2022-12-29T15:17:53.403Z,0.00
2022-12-29T15:20:20.842Z,0.00
2022-12-29T15:23:01.883Z,0.10
2022-12-29T15:25:29.732Z,0.05
2022-12-29T15:28:07.742Z,0.00
2022-12-29T15:30:36.584Z,0.10
2022-12-29T15:33:18.646Z,0.15
2022-12-29T15:35:52.543Z,0.10
2022-12-29T15:38:32.223Z,0.20
2022-12-29T15:41:09.676Z,0.50
2022-12-29T15:43:47.012Z,0.43
2022-12-29T15:46:15.346Z,0.17
2022-12-29T15:48:43.375Z,0.57
2022-12-29T15:51:24.840Z,0.30
2022-12-29T15:53:53.185Z,0.30
2022-12-29T15:56:21.135Z,0.43
2022-12-29T15:58:52.049Z,0.38
2022-12-29T16:01:22.092Z,0.40
2022-12-29T16:03:51.548Z,0.22
2022-12-29T16:06:39.452Z,0.50
2022-12-29T16:09:16.472Z,0.50
2022-12-29T16:12:09.206Z,0.52
2022-12-29T16:14:43.052Z,0.47
2022-12-29T16:17:13.931Z,0.50
2022-12-29T16:19:43.309Z,0.32
2022-12-29T16:22:27.033Z,0.93
2022-12-29T16:25:04.210Z,0.88
2022-12-29T16:27:43.431Z,0.50
2022-12-29T16:30:34.252Z,0.50
2022-12-29T16:33:04.979Z,0.80
2022-12-29T16:35:44.388Z,0.30
2022-12-29T16:38:24.000Z,0.20
2022-12-29T16:41:05.623Z,0.60
2022-12-29T16:43:42.997Z,0.73
2022-12-29T16:46:28.636Z,0.50
2022-12-29T16:48:58.067Z,0.60
2022-12-29T16:51:34.157Z,0.50
2022-12-29T16:54:02.894Z,0.40
2022-12-29T16:56:34.671Z,0.45
2022-12-29T16:59:07.518Z,1.02
2022-12-29T17:01:39.634Z,0.77
2022-12-29T17:04:11.297Z,0.75
2022-12-29T17:06:39.731Z,0.97
2022-12-29T17:09:25.420Z,1.05
2022-12-29T17:12:02.561Z,0.75
2022-12-29T17:15:13.599Z,0.80
2022-12-29T17:17:45.238Z,1.05
2022-12-29T17:20:18.936Z,0.97
2022-12-29T17:22:47.707Z,1.00
2022-12-29T17:25:20.020Z,0.82
2022-12-29T17:27:49.831Z,0.73
2022-12-29T17:30:21.016Z,0.90
2022-12-29T17:33:03.752Z,0.70
2022-12-29T17:35:31.549Z,0.88
2022-12-29T17:37:59.076Z,0.75
2022-12-29T17:40:33.097Z,1.10
2022-12-29T17:43:00.735Z,1.02
2022-12-29T17:45:31.059Z,1.20
2022-12-29T17:48:01.848Z,1.20
2022-12-29T17:50:31.514Z,1.00
2022-12-29T17:53:03.101Z,1.00
2022-12-29T17:55:37.213Z,1.08
2022-12-29T17:58:19.091Z,1.60
2022-12-29T18:00:52.414Z,0.63
2022-12-29T18:03:26.394Z,0.95
2022-12-29T18:05:54.332Z,1.15
2022-12-29T18:08:22.235Z,0.98
2022-12-29T18:10:53.985Z,1.13
2022-12-29T18:13:27.941Z,0.95
2022-12-29T18:15:58.487Z,1.08
2022-12-29T18:18:27.698Z,0.77
2022-12-29T18:20:59.410Z,1.20
2022-12-29T18:23:29.730Z,1.17
2022-12-29T18:26:00.258Z,1.00
2022-12-29T18:28:28.810Z,1.48
2022-12-29T18:30:59.118Z,1.38
2022-12-29T18:33:27.186Z,1.45
2022-12-29T18:36:00.337Z,1.50
2022-12-29T18:38:29.928Z,0.80
2022-12-29T18:40:58.568Z,0.88
2022-12-29T18:43:26.270Z,1.83
2022-12-29T18:45:54.288Z,1.48
2022-12-29T18:48:22.559Z,1.40
2022-12-29T18:50:52.003Z,0.57
2022-12-29T18:53:24.249Z,0.98
2022-12-29T18:55:52.922Z,0.57
2022-12-29T18:58:20.786Z,0.43
2022-12-29T19:00:48.469Z,0.83
2022-12-29T19:03:18.711Z,0.57
2022-12-29T19:05:47.492Z,0.52
2022-12-29T19:08:15.724Z,0.60
2022-12-29T19:10:44.291Z,0.50
2022-12-29T19:13:20.761Z,0.50
2022-12-29T19:15:48.435Z,0.60
2022-12-29T19:21:08.246Z,0.50
2022-12-29T19:23:35.905Z,0.38
2022-12-29T19:26:03.904Z,0.27
2022-12-29T19:28:31.453Z,0.40
2022-12-29T19:31:01.251Z,0.30
2022-12-29T19:33:29.536Z,0.38
2022-12-29T19:36:01.923Z,0.40
2022-12-29T19:38:29.977Z,0.30
2022-12-29T19:40:57.615Z,0.10
2022-12-29T19:43:25.228Z,0.52
2022-12-29T19:45:53.909Z,0.65
2022-12-29T19:48:21.683Z,0.32
2022-12-29T19:50:49.656Z,0.20
2022-12-29T19:53:17.285Z,0.17
2022-12-29T19:55:45.681Z,0.30
2022-12-29T19:58:14.187Z,0.30
2022-12-29T20:00:43.107Z,0.30
2022-12-29T20:03:11.403Z,0.20
2022-12-29T20:05:39.711Z,0.30
2022-12-29T20:08:07.446Z,0.47
2022-12-29T20:10:35.003Z,0.50
2022-12-29T20:13:04.637Z,1.30
2022-12-29T20:15:32.405Z,0.60
2022-12-29T20:18:15.506Z,0.80
2022-12-29T20:20:43.322Z,0.40
2022-12-29T20:23:11.021Z,0.38
2022-12-29T20:25:47.311Z,0.40
2022-12-29T20:28:16.887Z,0.20
2022-12-29T20:30:44.676Z,0.55
2022-12-29T20:33:12.515Z,0.55
2022-12-29T20:35:40.252Z,1.17
2022-12-29T20:38:08.160Z,0.85
2022-12-29T20:40:42.303Z,2.00
2022-12-29T20:43:15.731Z,4.15
2022-12-29T20:45:43.467Z,1.90
2022-12-29T20:48:11.235Z,0.75
2022-12-29T20:50:39.163Z,0.30
2022-12-29T20:53:06.802Z,0.40
2022-12-29T20:55:34.607Z,0.60
2022-12-29T21:00:50.022Z,0.88
2022-12-29T21:03:17.863Z,1.00
2022-12-29T21:05:45.566Z,1.70
2022-12-29T21:08:13.093Z,1.13
2022-12-29T21:10:40.684Z,0.60
2022-12-29T21:13:08.366Z,1.65
2022-12-29T21:15:35.893Z,1.30
2022-12-29T21:18:03.510Z,2.23
2022-12-29T21:20:32.145Z,2.40
2022-12-29T21:23:02.001Z,0.93
2022-12-29T21:25:37.332Z,0.50
2022-12-29T21:28:06.957Z,0.57
2022-12-29T21:30:34.968Z,1.00
2022-12-29T21:33:02.565Z,0.50
2022-12-29T21:35:30.727Z,0.80
2022-12-29T21:37:58.285Z,1.38
2022-12-29T21:40:25.901Z,0.90
2022-12-29T21:42:53.473Z,0.77
2022-12-29T21:45:27.595Z,0.98
2022-12-29T21:48:17.767Z,0.73
2022-12-29T21:51:06.596Z,0.43
2022-12-29T21:53:40.656Z,0.60
2022-12-29T21:56:10.897Z,0.60
2022-12-29T21:58:59.336Z,0.55
2022-12-29T22:01:47.568Z,0.45
2022-12-29T22:04:36.166Z,0.57
2022-12-29T22:07:24.231Z,0.73
2022-12-29T22:10:10.850Z,0.60
2022-12-29T22:12:56.941Z,0.50
2022-12-29T22:15:25.169Z,0.63
2022-12-29T22:17:54.435Z,0.60
2022-12-29T22:20:25.142Z,0.50
2022-12-29T22:22:53.250Z,0.33
2022-12-29T22:25:21.759Z,0.47
2022-12-29T22:27:54.243Z,0.75
2022-12-29T22:30:28.081Z,0.57
2022-12-29T22:32:58.052Z,1.33
2022-12-29T22:35:25.749Z,0.90
2022-12-29T22:37:53.744Z,1.10
2022-12-29T22:40:21.503Z,1.00
2022-12-29T22:42:49.048Z,1.15
2022-12-29T22:45:16.932Z,1.00
2022-12-29T22:47:44.540Z,1.17
2022-12-29T22:50:12.174Z,1.05
2022-12-29T22:52:39.894Z,1.08
2022-12-29T22:55:08.568Z,0.95
2022-12-29T22:57:36.484Z,1.00
2022-12-29T23:00:08.393Z,1.30
2022-12-29T23:02:36.202Z,1.15
2022-12-29T23:05:05.607Z,1.33
2022-12-29T23:07:36.996Z,1.70
2022-12-29T23:10:05.373Z,1.15
2022-12-29T23:12:33.213Z,1.20
2022-12-29T23:15:01.105Z,1.13
2022-12-29T23:17:28.714Z,1.52
2022-12-29T23:19:56.317Z,1.40
2022-12-29T23:22:25.143Z,1.30
2022-12-29T23:24:53.004Z,1.57
2022-12-29T23:27:20.549Z,1.77
2022-12-29T23:29:48.543Z,1.38
2022-12-29T23:32:16.416Z,1.42
2022-12-29T23:34:43.982Z,1.40
2022-12-29T23:37:11.561Z,1.10
2022-12-29T23:39:39.150Z,1.20
2022-12-29T23:42:07.003Z,1.40
2022-12-29T23:44:34.571Z,1.63
2022-12-29T23:47:02.253Z,1.60
2022-12-29T23:49:29.885Z,1.37
2022-12-29T23:51:57.392Z,1.40
2022-12-29T23:54:25.692Z,1.50
2022-12-29T23:56:53.325Z,1.35
2022-12-29T23:59:20.918Z,1.83
